createdAt,value
2022-09-28T00:00:27.241Z,9.62
2022-09-28T00:01:27.321Z,9.68
2022-09-28T00:02:27.333Z,9.50
2022-09-28T00:03:27.226Z,9.62
2022-09-28T00:04:27.217Z,9.59
2022-09-28T00:05:27.181Z,9.59
2022-09-28T00:06:27.169Z,9.62
2022-09-28T00:07:27.161Z,9.65
2022-09-28T00:08:27.143Z,9.63
2022-09-28T00:09:27.170Z,9.52
2022-09-28T00:10:27.126Z,9.63
2022-09-28T00:11:27.124Z,9.59
2022-09-28T00:12:27.102Z,9.55
2022-09-28T00:13:27.094Z,9.55
2022-09-28T00:14:27.116Z,9.58
2022-09-28T00:15:27.089Z,9.59
2022-09-28T00:16:27.116Z,9.59
2022-09-28T00:17:27.050Z,9.56
2022-09-28T00:18:27.032Z,9.52
2022-09-28T00:19:27.046Z,9.52
2022-09-28T00:20:27.051Z,9.48
2022-09-28T00:21:27.028Z,9.41
2022-09-28T00:22:27.003Z,9.41
2022-09-28T00:23:26.982Z,9.41
2022-09-28T00:24:27.888Z,9.35
2022-09-28T00:25:26.976Z,9.44
2022-09-28T00:26:26.975Z,9.38
2022-09-28T00:27:26.941Z,9.42
2022-09-28T00:28:26.929Z,9.41
2022-09-28T00:29:26.931Z,9.35
2022-09-28T00:30:26.921Z,9.26
2022-09-28T00:31:26.962Z,9.17
2022-09-28T00:32:26.890Z,9.27
2022-09-28T00:33:26.876Z,9.20
2022-09-28T00:34:26.873Z,9.16
2022-09-28T00:35:26.855Z,9.20
2022-09-28T00:36:26.848Z,9.22
2022-09-28T00:37:26.849Z,9.19
2022-09-28T00:38:26.825Z,9.23
2022-09-28T00:39:26.807Z,9.24
2022-09-28T00:40:26.855Z,9.26
2022-09-28T00:41:26.785Z,9.23
2022-09-28T00:42:26.783Z,9.22
2022-09-28T00:43:26.784Z,9.22
2022-09-28T00:44:26.768Z,9.17
2022-09-28T00:45:26.790Z,9.15
2022-09-28T00:46:26.832Z,9.10
2022-09-28T00:47:26.722Z,9.06
2022-09-28T00:48:26.718Z,9.08
2022-09-28T00:49:26.731Z,9.08
2022-09-28T00:50:26.715Z,9.08
2022-09-28T00:51:26.681Z,9.04
2022-09-28T00:52:27.375Z,9.12
2022-09-28T00:53:27.371Z,8.98
2022-09-28T00:54:26.667Z,9.00
2022-09-28T00:55:26.941Z,9.00
2022-09-28T00:56:26.656Z,8.94
2022-09-28T00:57:26.618Z,8.96
2022-09-28T00:58:26.607Z,8.96
2022-09-28T00:59:26.602Z,8.93
2022-09-28T01:00:26.602Z,8.78
2022-09-28T01:01:26.632Z,8.83
2022-09-28T01:02:26.653Z,8.88
2022-09-28T01:03:26.555Z,8.76
2022-09-28T01:04:29.874Z,8.89
2022-09-28T01:05:26.542Z,8.94
2022-09-28T01:06:26.537Z,8.94
2022-09-28T01:07:26.510Z,8.93
2022-09-28T01:08:26.500Z,8.88
2022-09-28T01:09:26.489Z,8.76
2022-09-28T01:10:26.473Z,8.78
2022-09-28T01:11:26.480Z,8.73
2022-09-28T01:12:26.467Z,8.63
2022-09-28T01:13:26.441Z,8.68
2022-09-28T01:14:26.437Z,8.68
2022-09-28T01:15:26.431Z,8.73
2022-09-28T01:16:26.523Z,8.75
2022-09-28T01:17:26.403Z,8.68
2022-09-28T01:18:26.402Z,8.63
2022-09-28T01:19:26.380Z,8.79
2022-09-28T01:20:26.378Z,8.76
2022-09-28T01:21:26.375Z,8.76
2022-09-28T01:22:26.343Z,8.73
2022-09-28T01:23:26.338Z,8.76
2022-09-28T01:24:26.315Z,8.78
2022-09-28T01:25:26.318Z,8.75
2022-09-28T01:26:26.885Z,8.76
2022-09-28T01:27:26.301Z,8.86
2022-09-28T01:28:26.294Z,8.85
2022-09-28T01:29:26.291Z,8.85
2022-09-28T01:30:26.255Z,8.75
2022-09-28T01:31:26.262Z,8.86
2022-09-28T01:32:26.884Z,8.70
2022-09-28T01:33:26.224Z,8.73
2022-09-28T01:34:26.245Z,8.71
2022-09-28T01:35:26.200Z,8.73
2022-09-28T01:36:26.200Z,8.79
2022-09-28T01:37:26.182Z,8.75
2022-09-28T01:38:26.189Z,8.73
2022-09-28T01:39:26.175Z,8.82
2022-09-28T01:40:26.279Z,8.78
2022-09-28T01:41:26.153Z,8.73
2022-09-28T01:42:26.147Z,8.75
2022-09-28T01:43:26.130Z,8.79
2022-09-28T01:44:26.886Z,8.67
2022-09-28T01:45:26.102Z,8.70
2022-09-28T01:46:26.078Z,8.57
2022-09-28T01:47:26.073Z,8.52
2022-09-28T01:48:26.074Z,8.55
2022-09-28T01:49:26.042Z,8.52
2022-09-28T01:50:26.067Z,8.45
2022-09-28T01:51:26.038Z,8.50
2022-09-28T01:52:26.025Z,8.42
2022-09-28T01:53:26.006Z,8.42
2022-09-28T01:54:25.989Z,8.40
2022-09-28T01:55:26.008Z,8.54
2022-09-28T01:56:25.969Z,8.45
2022-09-28T01:57:25.977Z,8.39
2022-09-28T01:58:25.962Z,8.46
2022-09-28T01:59:25.949Z,8.34
2022-09-28T02:00:26.094Z,8.34
2022-09-28T02:01:25.941Z,8.43
2022-09-28T02:02:25.959Z,8.34
2022-09-28T02:03:25.905Z,8.29
2022-09-28T02:04:25.884Z,8.39
2022-09-28T02:05:25.884Z,8.25
2022-09-28T02:06:25.872Z,8.39
2022-09-28T02:07:25.875Z,8.36
2022-09-28T02:08:25.849Z,8.32
2022-09-28T02:09:27.684Z,8.36
2022-09-28T02:10:26.378Z,8.43
2022-09-28T02:11:25.824Z,8.42
2022-09-28T02:12:25.802Z,8.34
2022-09-28T02:13:25.801Z,8.28
2022-09-28T02:14:25.777Z,8.29
2022-09-28T02:15:25.767Z,8.37
2022-09-28T02:16:25.827Z,8.36
2022-09-28T02:17:25.748Z,8.34
2022-09-28T02:18:25.768Z,8.42
2022-09-28T02:19:25.742Z,8.36
2022-09-28T02:20:25.715Z,8.37
2022-09-28T02:21:25.711Z,8.39
2022-09-28T02:22:25.711Z,8.31
2022-09-28T02:23:25.682Z,8.42
2022-09-28T02:24:25.672Z,8.40
2022-09-28T02:25:25.672Z,8.43
2022-09-28T02:26:25.660Z,8.36
2022-09-28T02:27:25.640Z,8.45
2022-09-28T02:28:25.645Z,8.42
2022-09-28T02:29:25.618Z,8.36
2022-09-28T02:30:25.615Z,8.45
2022-09-28T02:31:25.637Z,8.42
2022-09-28T02:32:25.592Z,8.42
2022-09-28T02:33:25.575Z,8.39
2022-09-28T02:34:25.557Z,8.31
2022-09-28T02:35:25.550Z,8.36
2022-09-28T02:36:25.535Z,8.37
2022-09-28T02:37:25.544Z,8.36
2022-09-28T02:38:25.527Z,8.36
2022-09-28T02:39:25.506Z,8.34
2022-09-28T02:40:25.525Z,8.36
2022-09-28T02:41:25.498Z,8.37
2022-09-28T02:42:25.467Z,8.36
2022-09-28T02:43:25.461Z,8.34
2022-09-28T02:44:25.477Z,8.34
2022-09-28T02:45:25.486Z,8.42
2022-09-28T02:46:25.430Z,8.39
2022-09-28T02:47:25.422Z,8.43
2022-09-28T02:48:42.785Z,8.46
2022-09-28T02:49:26.417Z,8.42
2022-09-28T02:50:25.387Z,8.37
2022-09-28T02:51:25.375Z,8.37
2022-09-28T02:52:25.405Z,8.42
2022-09-28T02:53:25.348Z,8.40
2022-09-28T02:54:25.370Z,8.39
2022-09-28T02:55:25.329Z,8.40
2022-09-28T02:56:25.328Z,8.46
2022-09-28T02:57:25.306Z,8.45
2022-09-28T02:58:25.323Z,8.49
2022-09-28T02:59:25.292Z,8.45
2022-09-28T03:00:25.272Z,8.49
2022-09-28T03:01:25.311Z,8.49
2022-09-28T03:02:25.319Z,8.39
2022-09-28T03:03:25.264Z,8.54
2022-09-28T03:04:25.228Z,8.46
2022-09-28T03:05:25.224Z,8.40
2022-09-28T03:06:25.204Z,8.40
2022-09-28T03:07:25.202Z,8.37
2022-09-28T03:08:25.180Z,8.37
2022-09-28T03:09:25.197Z,8.37
2022-09-28T03:10:25.192Z,8.40
2022-09-28T03:11:25.157Z,8.39
2022-09-28T03:12:25.135Z,8.31
2022-09-28T03:13:25.129Z,8.39
2022-09-28T03:14:25.107Z,8.37
2022-09-28T03:15:25.141Z,8.27
2022-09-28T03:16:25.142Z,8.42
2022-09-28T03:17:31.886Z,8.37
2022-09-28T03:18:25.074Z,8.32
2022-09-28T03:19:25.877Z,8.34
2022-09-28T03:20:25.050Z,8.36
2022-09-28T03:21:26.911Z,8.42
2022-09-28T03:22:25.032Z,8.32
2022-09-28T03:23:25.538Z,8.42
2022-09-28T03:24:25.004Z,8.39
2022-09-28T03:25:25.004Z,8.39
2022-09-28T03:26:25.004Z,8.43
2022-09-28T03:27:25.017Z,8.42
2022-09-28T03:28:24.969Z,8.43
2022-09-28T03:29:24.962Z,8.42
2022-09-28T03:30:25.868Z,8.39
2022-09-28T03:31:24.996Z,8.36
2022-09-28T03:32:24.927Z,8.37
2022-09-28T03:33:24.924Z,8.37
2022-09-28T03:34:24.907Z,8.36
2022-09-28T03:35:24.907Z,8.39
2022-09-28T03:36:24.878Z,8.42
2022-09-28T03:37:31.385Z,8.42
2022-09-28T03:38:24.867Z,8.39
2022-09-28T03:39:24.907Z,8.42
2022-09-28T03:40:24.862Z,8.32
2022-09-28T03:41:24.828Z,8.32
2022-09-28T03:42:24.832Z,8.34
2022-09-28T03:43:24.806Z,8.39
2022-09-28T03:44:24.794Z,8.28
2022-09-28T03:45:24.856Z,8.28
2022-09-28T03:46:24.914Z,8.36
2022-09-28T03:47:25.377Z,8.28
2022-09-28T03:48:28.793Z,8.27
2022-09-28T03:49:25.739Z,8.25
2022-09-28T03:50:24.720Z,8.28
2022-09-28T03:51:24.733Z,8.27
2022-09-28T03:52:24.903Z,8.27
2022-09-28T03:53:24.699Z,8.24
2022-09-28T03:54:24.678Z,8.29
2022-09-28T03:55:24.671Z,8.25
2022-09-28T03:56:24.661Z,8.32
2022-09-28T03:57:24.656Z,8.34
2022-09-28T03:58:24.933Z,8.28
2022-09-28T03:59:24.642Z,8.27
2022-09-28T04:00:24.631Z,8.29
2022-09-28T04:01:24.735Z,8.40
2022-09-28T04:02:31.497Z,8.36
2022-09-28T04:03:24.593Z,8.36
2022-09-28T04:04:24.619Z,8.46
2022-09-28T04:05:31.388Z,8.46
2022-09-28T04:06:24.556Z,8.43
2022-09-28T04:07:30.244Z,8.43
2022-09-28T04:08:25.535Z,8.45
2022-09-28T04:09:24.516Z,8.45
2022-09-28T04:10:24.905Z,8.43
2022-09-28T04:11:24.498Z,8.43
2022-09-28T04:12:24.493Z,8.46
2022-09-28T04:13:24.474Z,8.50
2022-09-28T04:14:24.505Z,8.49
2022-09-28T04:15:24.461Z,8.42
2022-09-28T04:16:25.499Z,8.36
2022-09-28T04:17:24.433Z,8.47
2022-09-28T04:18:24.444Z,8.49
2022-09-28T04:19:24.410Z,8.50
2022-09-28T04:20:24.428Z,8.49
2022-09-28T04:21:24.402Z,8.54
2022-09-28T04:22:24.406Z,8.55
2022-09-28T04:23:24.369Z,8.54
2022-09-28T04:24:24.363Z,8.47
2022-09-28T04:25:24.350Z,8.42
2022-09-28T04:26:24.335Z,8.40
2022-09-28T04:27:24.339Z,8.39
2022-09-28T04:28:24.315Z,8.39
2022-09-28T04:29:24.306Z,8.36
2022-09-28T04:30:24.303Z,8.37
2022-09-28T04:31:24.315Z,8.36
2022-09-28T04:32:24.264Z,8.42
2022-09-28T04:33:24.276Z,8.40
2022-09-28T04:34:24.255Z,8.36
2022-09-28T04:35:24.250Z,8.43
2022-09-28T04:36:24.254Z,8.47
2022-09-28T04:37:24.213Z,8.34
2022-09-28T04:38:41.850Z,8.34
2022-09-28T04:39:25.194Z,8.37
2022-09-28T04:40:24.204Z,8.39
2022-09-28T04:41:24.177Z,8.32
2022-09-28T04:42:24.176Z,8.37
2022-09-28T04:43:24.203Z,8.40
2022-09-28T04:44:24.137Z,8.39
2022-09-28T04:45:24.136Z,8.40
2022-09-28T04:46:24.142Z,8.39
2022-09-28T04:47:24.127Z,8.36
2022-09-28T04:48:24.100Z,8.43
2022-09-28T04:49:24.084Z,8.39
2022-09-28T04:50:24.075Z,8.37
2022-09-28T04:51:24.070Z,8.47
2022-09-28T04:52:24.058Z,8.47
2022-09-28T04:53:24.072Z,8.52
2022-09-28T04:54:24.026Z,8.49
2022-09-28T04:55:24.037Z,8.46
2022-09-28T04:56:24.053Z,8.42
2022-09-28T04:57:24.000Z,8.47
2022-09-28T04:58:24.002Z,8.52
2022-09-28T04:59:23.983Z,8.46
2022-09-28T05:00:23.962Z,8.45
2022-09-28T05:01:24.057Z,8.43
2022-09-28T05:02:24.010Z,8.45
2022-09-28T05:03:23.972Z,8.36
2022-09-28T05:04:26.151Z,8.47
2022-09-28T05:05:23.909Z,8.46
2022-09-28T05:06:23.896Z,8.43
2022-09-28T05:07:44.894Z,8.45
2022-09-28T05:08:23.876Z,8.40
2022-09-28T05:09:23.894Z,8.36
2022-09-28T05:10:23.865Z,8.40
2022-09-28T05:11:23.859Z,8.43
2022-09-28T05:12:23.841Z,8.36
2022-09-28T05:13:23.841Z,8.40
2022-09-28T05:14:23.814Z,8.46
2022-09-28T05:15:23.854Z,8.52
2022-09-28T05:16:23.843Z,8.32
2022-09-28T05:17:23.787Z,8.42
2022-09-28T05:18:23.784Z,8.37
2022-09-28T05:19:23.791Z,8.43
2022-09-28T05:20:23.765Z,8.45
2022-09-28T05:21:23.826Z,8.39
2022-09-28T05:22:25.835Z,8.40
2022-09-28T05:23:23.748Z,8.34
2022-09-28T05:24:23.734Z,8.37
2022-09-28T05:25:23.691Z,8.39
2022-09-28T05:26:23.703Z,8.40
2022-09-28T05:27:23.687Z,8.36
2022-09-28T05:28:23.670Z,8.46
2022-09-28T05:29:23.640Z,8.52
2022-09-28T05:30:23.657Z,8.49
2022-09-28T05:31:23.684Z,8.50
2022-09-28T05:32:23.618Z,8.47
2022-09-28T05:33:23.605Z,8.40
2022-09-28T05:34:23.613Z,8.46
2022-09-28T05:35:23.579Z,8.47
2022-09-28T05:36:23.578Z,8.39
2022-09-28T05:37:23.581Z,8.39
2022-09-28T05:38:23.547Z,8.39
2022-09-28T05:39:23.568Z,8.37
2022-09-28T05:40:23.623Z,8.46
2022-09-28T05:41:23.531Z,8.37
2022-09-28T05:42:23.503Z,8.45
2022-09-28T05:43:23.501Z,8.36
2022-09-28T05:44:23.512Z,8.47
2022-09-28T05:45:23.479Z,8.49
2022-09-28T05:46:23.597Z,8.36
2022-09-28T05:47:23.447Z,8.49
2022-09-28T05:48:23.455Z,8.52
2022-09-28T05:49:23.431Z,8.42
2022-09-28T05:50:24.442Z,8.49
2022-09-28T05:51:23.412Z,8.52
2022-09-28T05:52:23.402Z,8.52
2022-09-28T05:53:23.383Z,8.40
2022-09-28T05:54:23.377Z,8.37
2022-09-28T05:55:23.422Z,8.43
2022-09-28T05:56:23.391Z,8.39
2022-09-28T05:57:23.337Z,8.37
2022-09-28T05:58:23.348Z,8.40
2022-09-28T05:59:23.322Z,8.46
2022-09-28T06:00:23.301Z,8.47
2022-09-28T06:01:23.319Z,8.40
2022-09-28T06:02:23.332Z,8.42
2022-09-28T06:03:23.282Z,8.39
2022-09-28T06:04:23.278Z,8.36
2022-09-28T06:05:23.265Z,8.42
2022-09-28T06:06:23.255Z,8.39
2022-09-28T06:07:23.238Z,8.49
2022-09-28T06:08:23.884Z,8.58
2022-09-28T06:09:25.939Z,8.54
2022-09-28T06:10:23.253Z,8.54
2022-09-28T06:11:23.200Z,8.55
2022-09-28T06:12:23.189Z,8.60
2022-09-28T06:13:23.165Z,8.54
2022-09-28T06:14:23.167Z,8.61
2022-09-28T06:15:29.887Z,8.54
2022-09-28T06:16:23.188Z,8.49
2022-09-28T06:17:23.125Z,8.54
2022-09-28T06:18:23.123Z,8.52
2022-09-28T06:19:23.128Z,8.45
2022-09-28T06:20:23.101Z,8.46
2022-09-28T06:21:23.085Z,8.52
2022-09-28T06:22:23.091Z,8.52
2022-09-28T06:23:23.059Z,8.55
2022-09-28T06:24:23.046Z,8.58
2022-09-28T06:25:23.044Z,8.65
2022-09-28T06:26:23.057Z,8.63
2022-09-28T06:27:23.020Z,8.61
2022-09-28T06:28:23.034Z,8.64
2022-09-28T06:29:22.998Z,8.70
2022-09-28T06:30:23.023Z,8.85
2022-09-28T06:31:23.062Z,8.88
2022-09-28T06:32:22.957Z,8.79
2022-09-28T06:33:22.957Z,8.93
2022-09-28T06:34:22.938Z,8.94
2022-09-28T06:35:23.888Z,8.88
2022-09-28T06:36:22.914Z,8.91
2022-09-28T06:37:22.934Z,8.85
2022-09-28T06:38:22.909Z,8.93
2022-09-28T06:39:23.385Z,8.96
2022-09-28T06:40:22.942Z,8.91
2022-09-28T06:41:23.389Z,8.96
2022-09-28T06:42:22.852Z,8.86
2022-09-28T06:43:22.928Z,8.97
2022-09-28T06:44:22.829Z,8.96
2022-09-28T06:45:22.827Z,8.75
2022-09-28T06:46:22.863Z,8.80
2022-09-28T06:47:22.910Z,8.79
2022-09-28T06:48:22.791Z,8.80
2022-09-28T06:49:22.803Z,8.91
2022-09-28T06:50:22.755Z,8.96
2022-09-28T06:51:22.744Z,9.06
2022-09-28T06:52:22.744Z,9.10
2022-09-28T06:53:22.741Z,9.16
2022-09-28T06:54:22.929Z,9.15
2022-09-28T06:55:22.707Z,9.10
2022-09-28T06:56:22.693Z,9.12
2022-09-28T06:57:22.693Z,9.10
2022-09-28T06:58:22.695Z,9.04
2022-09-28T06:59:22.663Z,9.08
2022-09-28T07:00:22.653Z,9.15
2022-09-28T07:01:22.737Z,9.04
2022-09-28T07:02:22.666Z,9.00
2022-09-28T07:03:22.640Z,9.01
2022-09-28T07:04:25.389Z,8.96
2022-09-28T07:05:22.602Z,9.00
2022-09-28T07:06:22.585Z,8.88
2022-09-28T07:07:22.930Z,8.85
2022-09-28T07:08:25.384Z,8.96
2022-09-28T07:09:33.064Z,8.83
2022-09-28T07:10:23.565Z,8.94
2022-09-28T07:11:22.547Z,8.98
2022-09-28T07:12:22.576Z,8.98
2022-09-28T07:13:46.653Z,8.93
2022-09-28T07:14:41.636Z,8.83
2022-09-28T07:15:23.486Z,8.94
2022-09-28T07:16:26.779Z,8.86
2022-09-28T07:17:24.470Z,8.89
2022-09-28T07:18:22.496Z,8.96
2022-09-28T07:19:22.452Z,8.94
2022-09-28T07:20:22.454Z,8.91
2022-09-28T07:21:29.698Z,8.88
2022-09-28T07:22:35.654Z,8.93
2022-09-28T07:23:23.438Z,8.96
2022-09-28T07:24:23.383Z,8.94
2022-09-28T07:25:24.883Z,8.98
2022-09-28T07:26:24.305Z,8.97
2022-09-28T07:27:29.146Z,8.94
2022-09-28T07:28:22.355Z,8.97
2022-09-28T07:29:22.419Z,8.97
2022-09-28T07:30:24.915Z,8.97
2022-09-28T07:31:22.414Z,8.97
2022-09-28T07:32:22.357Z,9.06
2022-09-28T07:33:22.320Z,8.98
2022-09-28T07:34:22.282Z,9.08
2022-09-28T07:35:22.286Z,9.06
2022-09-28T07:36:22.262Z,9.13
2022-09-28T07:37:22.417Z,9.19
2022-09-28T07:38:22.234Z,9.19
2022-09-28T07:39:22.233Z,9.17
2022-09-28T07:40:22.955Z,9.19
2022-09-28T07:41:22.227Z,9.17
2022-09-28T07:42:22.235Z,9.15
2022-09-28T07:43:22.211Z,9.30
2022-09-28T07:44:22.176Z,9.24
2022-09-28T07:45:22.890Z,9.19
2022-09-28T07:46:22.235Z,9.30
2022-09-28T07:47:22.145Z,9.35
2022-09-28T07:48:22.130Z,9.40
2022-09-28T07:49:24.891Z,9.35
2022-09-28T07:50:22.114Z,9.38
2022-09-28T07:51:22.102Z,9.42
2022-09-28T07:52:22.083Z,9.48
2022-09-28T07:53:22.104Z,9.41
2022-09-28T07:54:22.089Z,9.40
2022-09-28T07:55:22.050Z,9.38
2022-09-28T07:56:22.039Z,9.38
2022-09-28T07:57:22.039Z,9.32
2022-09-28T07:58:22.028Z,9.31
2022-09-28T07:59:22.032Z,9.30
2022-09-28T08:00:22.009Z,9.27
2022-09-28T08:01:22.076Z,9.23
2022-09-28T08:02:22.049Z,9.45
2022-09-28T08:03:21.970Z,9.35
2022-09-28T08:04:21.975Z,9.44
2022-09-28T08:05:21.942Z,9.50
2022-09-28T08:06:21.945Z,9.68
2022-09-28T08:07:24.084Z,9.63
2022-09-28T08:08:21.912Z,9.70
2022-09-28T08:09:21.920Z,9.71
2022-09-28T08:10:21.896Z,9.60
2022-09-28T08:11:21.898Z,9.68
2022-09-28T08:12:24.402Z,9.85
2022-09-28T08:13:27.000Z,9.92
2022-09-28T08:14:22.390Z,9.95
2022-09-28T08:15:21.836Z,10.02
2022-09-28T08:16:24.464Z,9.95
2022-09-28T08:17:21.851Z,9.77
2022-09-28T08:18:21.805Z,9.77
2022-09-28T08:19:21.792Z,9.80
2022-09-28T08:20:21.777Z,9.80
2022-09-28T08:21:21.788Z,9.70
2022-09-28T08:22:21.756Z,9.71
2022-09-28T08:23:21.744Z,9.81
2022-09-28T08:24:21.739Z,9.77
2022-09-28T08:25:21.928Z,9.78
2022-09-28T08:26:21.737Z,9.80
2022-09-28T08:27:21.715Z,9.83
2022-09-28T08:28:22.388Z,9.83
2022-09-28T08:29:21.712Z,9.83
2022-09-28T08:30:21.727Z,9.80
2022-09-28T08:31:21.737Z,9.81
2022-09-28T08:32:21.650Z,9.83
2022-09-28T08:33:24.398Z,9.81
2022-09-28T08:34:21.778Z,9.86
2022-09-28T08:35:21.789Z,9.98
2022-09-28T08:36:21.608Z,9.88
2022-09-28T08:37:21.607Z,10.01
2022-09-28T08:38:21.598Z,10.09
2022-09-28T08:39:21.589Z,9.99
2022-09-28T08:40:21.620Z,9.83
2022-09-28T08:41:22.389Z,9.91
2022-09-28T08:42:22.392Z,10.01
2022-09-28T08:43:21.545Z,10.04
2022-09-28T08:44:21.514Z,10.07
2022-09-28T08:45:23.212Z,10.11
2022-09-28T08:46:23.912Z,10.29
2022-09-28T08:47:22.488Z,10.35
2022-09-28T08:48:21.465Z,10.34
2022-09-28T08:49:25.491Z,10.38
2022-09-28T08:50:21.524Z,10.18
2022-09-28T08:51:21.439Z,10.26
2022-09-28T08:52:21.629Z,10.13
2022-09-28T08:53:24.393Z,10.16
2022-09-28T08:54:21.422Z,10.18
2022-09-28T08:55:21.430Z,10.29
2022-09-28T08:56:21.386Z,10.43
2022-09-28T08:57:21.379Z,10.34
2022-09-28T08:58:21.411Z,10.60
2022-09-28T08:59:21.358Z,10.63
2022-09-28T09:00:21.384Z,10.58
2022-09-28T09:01:21.416Z,10.46
2022-09-28T09:02:21.366Z,10.44
2022-09-28T09:03:21.892Z,10.43
2022-09-28T09:04:21.308Z,10.29
2022-09-28T09:05:21.290Z,10.34
2022-09-28T09:06:21.303Z,10.35
2022-09-28T09:07:21.267Z,10.42
2022-09-28T09:08:21.272Z,10.55
2022-09-28T09:09:21.243Z,10.52
2022-09-28T09:10:21.242Z,10.51
2022-09-28T09:11:21.243Z,10.47
2022-09-28T09:12:21.244Z,10.60
2022-09-28T09:13:21.204Z,10.54
2022-09-28T09:14:21.202Z,10.55
2022-09-28T09:15:21.182Z,10.51
2022-09-28T09:16:21.262Z,10.58
2022-09-28T09:17:21.178Z,10.63
2022-09-28T09:18:21.169Z,10.66
2022-09-28T09:19:21.132Z,10.60
2022-09-28T09:20:21.127Z,10.78
2022-09-28T09:21:23.899Z,10.80
2022-09-28T09:22:21.122Z,11.02
2022-09-28T09:23:21.089Z,10.98
2022-09-28T09:24:23.894Z,10.94
2022-09-28T09:25:21.083Z,10.99
2022-09-28T09:26:24.793Z,10.95
2022-09-28T09:27:21.890Z,11.12
2022-09-28T09:28:21.033Z,11.17
2022-09-28T09:29:21.024Z,11.16
2022-09-28T09:30:24.022Z,11.08
2022-09-28T09:31:22.864Z,11.08
2022-09-28T09:32:21.001Z,11.03
2022-09-28T09:33:21.022Z,11.12
2022-09-28T09:34:20.960Z,11.09
2022-09-28T09:35:23.816Z,11.13
2022-09-28T09:36:20.948Z,11.26
2022-09-28T09:37:20.970Z,11.19
2022-09-28T09:38:20.928Z,11.16
2022-09-28T09:39:20.911Z,11.21
2022-09-28T09:40:21.083Z,11.31
2022-09-28T09:41:20.907Z,11.17
2022-09-28T09:42:20.889Z,11.06
2022-09-28T09:43:20.903Z,11.12
2022-09-28T09:44:20.867Z,11.13
2022-09-28T09:45:20.859Z,11.16
2022-09-28T09:46:20.930Z,11.20
2022-09-28T09:47:20.857Z,11.09
2022-09-28T09:48:20.852Z,11.17
2022-09-28T09:49:20.875Z,11.05
2022-09-28T09:50:20.791Z,10.98
2022-09-28T09:51:20.929Z,10.99
2022-09-28T09:52:20.819Z,11.06
2022-09-28T09:53:20.780Z,11.11
2022-09-28T09:54:20.767Z,11.13
2022-09-28T09:55:20.749Z,11.30
2022-09-28T09:56:20.758Z,11.23
2022-09-28T09:57:20.724Z,11.17
2022-09-28T09:58:20.721Z,11.23
2022-09-28T09:59:20.724Z,11.24
2022-09-28T10:00:20.687Z,11.27
2022-09-28T10:01:20.747Z,11.27
2022-09-28T10:02:20.696Z,11.20
2022-09-28T10:03:20.646Z,11.23
2022-09-28T10:04:20.652Z,11.20
2022-09-28T10:05:20.669Z,11.13
2022-09-28T10:06:20.627Z,11.19
2022-09-28T10:07:20.605Z,11.27
2022-09-28T10:08:20.596Z,11.19
2022-09-28T10:09:20.581Z,11.27
2022-09-28T10:10:20.598Z,11.27
2022-09-28T10:11:21.393Z,11.13
2022-09-28T10:12:20.576Z,11.26
2022-09-28T10:13:20.539Z,11.26
2022-09-28T10:14:21.409Z,11.27
2022-09-28T10:15:20.538Z,11.19
2022-09-28T10:16:21.550Z,11.08
2022-09-28T10:17:20.523Z,11.05
2022-09-28T10:18:20.489Z,11.08
2022-09-28T10:19:20.497Z,10.99
2022-09-28T10:20:20.475Z,10.99
2022-09-28T10:21:20.470Z,11.17
2022-09-28T10:22:20.459Z,11.30
2022-09-28T10:23:20.454Z,11.31
2022-09-28T10:24:20.446Z,11.49
2022-09-28T10:25:20.413Z,11.49
2022-09-28T10:26:24.764Z,11.45
2022-09-28T10:27:21.440Z,11.48
2022-09-28T10:28:20.387Z,11.46
2022-09-28T10:29:20.375Z,11.42
2022-09-28T10:30:20.362Z,11.42
2022-09-28T10:31:20.906Z,11.27
2022-09-28T10:32:20.329Z,11.27
2022-09-28T10:33:20.343Z,11.23
2022-09-28T10:34:20.308Z,11.26
2022-09-28T10:35:20.306Z,11.28
2022-09-28T10:36:20.900Z,11.36
2022-09-28T10:37:20.315Z,11.33
2022-09-28T10:38:20.293Z,11.27
2022-09-28T10:39:20.269Z,11.35
2022-09-28T10:40:20.291Z,11.30
2022-09-28T10:41:20.245Z,11.42
2022-09-28T10:42:20.226Z,11.69
2022-09-28T10:43:20.239Z,11.87
2022-09-28T10:44:20.201Z,11.93
2022-09-28T10:45:20.199Z,12.04
2022-09-28T10:46:20.247Z,11.98
2022-09-28T10:47:20.452Z,12.11
2022-09-28T10:48:20.193Z,11.77
2022-09-28T10:49:20.178Z,11.66
2022-09-28T10:50:20.141Z,11.53
2022-09-28T10:51:20.133Z,11.49
2022-09-28T10:52:20.124Z,11.42
2022-09-28T10:53:20.140Z,11.28
2022-09-28T10:54:20.236Z,11.46
2022-09-28T10:55:20.424Z,11.62
2022-09-28T10:56:20.098Z,11.72
2022-09-28T10:57:20.073Z,11.67
2022-09-28T10:58:20.049Z,11.77
2022-09-28T10:59:20.040Z,11.90
2022-09-28T11:00:20.053Z,12.00
2022-09-28T11:01:20.113Z,11.93
2022-09-28T11:02:20.083Z,11.94
2022-09-28T11:03:22.891Z,11.98
2022-09-28T11:04:19.992Z,11.93
2022-09-28T11:05:20.023Z,11.84
2022-09-28T11:06:19.978Z,11.72
2022-09-28T11:07:19.961Z,11.78
2022-09-28T11:08:19.947Z,11.79
2022-09-28T11:09:20.080Z,11.74
2022-09-28T11:10:20.440Z,11.67
2022-09-28T11:11:19.924Z,11.75
2022-09-28T11:12:19.903Z,11.70
2022-09-28T11:13:19.876Z,11.56
2022-09-28T11:14:19.882Z,11.42
2022-09-28T11:15:19.864Z,11.53
2022-09-28T11:16:19.902Z,11.56
2022-09-28T11:17:19.868Z,11.64
2022-09-28T11:18:19.838Z,11.79
2022-09-28T11:19:19.820Z,11.84
2022-09-28T11:20:24.729Z,12.05
2022-09-28T11:21:20.827Z,11.98
2022-09-28T11:22:19.783Z,12.13
2022-09-28T11:23:19.798Z,12.08
2022-09-28T11:24:19.918Z,11.90
2022-09-28T11:25:19.763Z,12.00
2022-09-28T11:26:19.748Z,12.00
2022-09-28T11:27:19.760Z,12.03
2022-09-28T11:28:26.396Z,12.25
2022-09-28T11:29:19.804Z,12.36
2022-09-28T11:30:19.701Z,12.76
2022-09-28T11:31:19.693Z,12.91
2022-09-28T11:32:19.692Z,13.01
2022-09-28T11:33:19.673Z,13.21
2022-09-28T11:34:24.905Z,13.21
2022-09-28T11:35:20.674Z,13.04
2022-09-28T11:36:19.637Z,13.06
2022-09-28T11:37:19.633Z,12.89
2022-09-28T11:38:19.611Z,12.69
2022-09-28T11:39:19.801Z,12.48
2022-09-28T11:40:19.660Z,12.44
2022-09-28T11:41:19.602Z,12.38
2022-09-28T11:42:19.567Z,12.58
2022-09-28T11:43:19.595Z,12.61
2022-09-28T11:44:19.733Z,12.63
2022-09-28T11:45:19.542Z,12.49
2022-09-28T11:46:19.643Z,12.48
2022-09-28T11:47:19.523Z,12.62
2022-09-28T11:48:19.504Z,12.77
2022-09-28T11:49:19.512Z,12.92
2022-09-28T11:50:23.726Z,12.91
2022-09-28T11:51:19.495Z,12.87
2022-09-28T11:52:19.454Z,12.88
2022-09-28T11:53:19.458Z,13.09
2022-09-28T11:54:19.666Z,13.12
2022-09-28T11:55:19.427Z,13.29
2022-09-28T11:56:19.425Z,13.59
2022-09-28T11:57:19.432Z,13.73
2022-09-28T11:58:20.462Z,13.54
2022-09-28T11:59:19.383Z,13.47
2022-09-28T12:00:19.370Z,13.44
2022-09-28T12:01:19.369Z,13.31
2022-09-28T12:02:19.536Z,13.39
2022-09-28T12:03:19.507Z,13.29
2022-09-28T12:04:19.419Z,13.25
2022-09-28T12:05:21.060Z,13.09
2022-09-28T12:06:19.319Z,13.12
2022-09-28T12:07:19.297Z,13.19
2022-09-28T12:08:19.316Z,13.27
2022-09-28T12:09:19.445Z,13.54
2022-09-28T12:10:19.278Z,13.71
2022-09-28T12:11:19.253Z,13.84
2022-09-28T12:12:19.915Z,13.80
2022-09-28T12:13:19.265Z,13.76
2022-09-28T12:14:19.223Z,13.61
2022-09-28T12:15:19.207Z,13.71
2022-09-28T12:17:20.463Z,13.41
2022-09-28T12:18:19.194Z,13.38
2022-09-28T12:19:20.090Z,13.31
2022-09-28T12:20:19.147Z,12.89
2022-09-28T12:21:19.161Z,13.16
2022-09-28T12:22:19.136Z,12.94
2022-09-28T12:23:19.150Z,13.12
2022-09-28T12:24:19.117Z,13.28
2022-09-28T12:25:19.126Z,13.39
2022-09-28T12:26:19.097Z,13.55
2022-09-28T12:27:19.071Z,13.72
2022-09-28T12:28:19.079Z,13.62
2022-09-28T12:29:19.253Z,13.63
2022-09-28T12:30:19.081Z,13.55
2022-09-28T12:31:19.102Z,13.44
2022-09-28T12:32:19.023Z,13.36
2022-09-28T12:33:19.012Z,13.38
2022-09-28T12:34:19.016Z,13.62
2022-09-28T12:35:25.914Z,13.73
2022-09-28T12:36:19.007Z,13.48
2022-09-28T12:37:18.964Z,13.29
2022-09-28T12:38:18.962Z,13.09
2022-09-28T12:39:31.008Z,12.99
2022-09-28T12:40:20.006Z,12.99
2022-09-28T12:41:18.925Z,12.79
2022-09-28T12:42:18.916Z,12.71
2022-09-28T12:43:18.915Z,12.67
2022-09-28T12:44:18.890Z,12.51
2022-09-28T12:45:18.906Z,12.51
2022-09-28T12:46:18.950Z,12.29
2022-09-28T12:47:18.854Z,12.26
2022-09-28T12:48:18.848Z,12.21
2022-09-28T12:50:37.951Z,12.22
2022-09-28T12:51:19.825Z,12.29
2022-09-28T12:52:18.829Z,12.38
2022-09-28T12:53:18.793Z,12.43
2022-09-28T12:54:18.890Z,12.33
2022-09-28T12:55:18.818Z,12.40
2022-09-28T12:56:21.546Z,12.34
2022-09-28T12:57:18.758Z,12.40
2022-09-28T12:58:18.757Z,12.41
2022-09-28T12:59:18.884Z,12.51
2022-09-28T13:00:18.714Z,12.51
2022-09-28T13:01:18.869Z,12.51
2022-09-28T13:02:18.747Z,12.59
2022-09-28T13:03:18.703Z,12.59
2022-09-28T13:04:18.693Z,12.69
2022-09-28T13:05:18.683Z,12.79
2022-09-28T13:06:18.657Z,12.85
2022-09-28T13:07:18.638Z,13.01
2022-09-28T13:08:18.655Z,13.01
2022-09-28T13:09:18.729Z,13.12
2022-09-28T13:10:18.611Z,13.06
2022-09-28T13:11:18.594Z,12.91